sensor_id;sensor_type;location;lat;lon;timestamp;P1;durP1;ratioP1;P2;durP2;ratioP2
66979;SDS011;54048;51.468;-2.572;2022-08-19T00:01:17;0.68;;;0.50;;
66979;SDS011;54048;51.468;-2.572;2022-08-19T00:03:43;1.42;;;0.80;;
66979;SDS011;54048;51.468;-2.572;2022-08-19T00:06:08;0.45;;;0.45;;
66979;SDS011;54048;51.468;-2.572;2022-08-19T00:08:34;4.45;;;0.50;;
66979;SDS011;54048;51.468;-2.572;2022-08-19T00:11:00;1.52;;;0.45;;
66979;SDS011;54048;51.468;-2.572;2022-08-19T00:13:25;0.93;;;0.45;;
66979;SDS011;54048;51.468;-2.572;2022-08-19T00:15:53;1.35;;;0.70;;
66979;SDS011;54048;51.468;-2.572;2022-08-19T00:18:19;1.85;;;0.90;;
66979;SDS011;54048;51.468;-2.572;2022-08-19T00:20:44;2.70;;;0.82;;
66979;SDS011;54048;51.468;-2.572;2022-08-19T00:23:10;4.03;;;0.90;;
66979;SDS011;54048;51.468;-2.572;2022-08-19T00:25:35;3.80;;;1.20;;
66979;SDS011;54048;51.468;-2.572;2022-08-19T00:28:01;2.30;;;0.80;;
66979;SDS011;54048;51.468;-2.572;2022-08-19T00:30:27;4.80;;;0.90;;
66979;SDS011;54048;51.468;-2.572;2022-08-19T00:32:53;5.60;;;1.38;;
66979;SDS011;54048;51.468;-2.572;2022-08-19T00:35:20;5.95;;;1.10;;
66979;SDS011;54048;51.468;-2.572;2022-08-19T00:37:46;5.40;;;1.08;;
66979;SDS011;54048;51.468;-2.572;2022-08-19T00:40:12;3.08;;;0.88;;
66979;SDS011;54048;51.468;-2.572;2022-08-19T00:42:38;5.13;;;1.10;;
66979;SDS011;54048;51.468;-2.572;2022-08-19T00:45:09;5.28;;;1.42;;
66979;SDS011;54048;51.468;-2.572;2022-08-19T00:47:37;4.35;;;0.98;;
66979;SDS011;54048;51.468;-2.572;2022-08-19T00:50:03;5.43;;;1.00;;
66979;SDS011;54048;51.468;-2.572;2022-08-19T00:52:30;2.97;;;0.80;;
66979;SDS011;54048;51.468;-2.572;2022-08-19T00:54:59;8.30;;;1.17;;
66979;SDS011;54048;51.468;-2.572;2022-08-19T00:57:44;2.80;;;0.93;;
66979;SDS011;54048;51.468;-2.572;2022-08-19T01:00:13;4.53;;;1.00;;
66979;SDS011;54048;51.468;-2.572;2022-08-19T01:02:41;3.72;;;1.00;;
66979;SDS011;54048;51.468;-2.572;2022-08-19T01:05:08;5.75;;;1.30;;
66979;SDS011;54048;51.468;-2.572;2022-08-19T01:07:35;4.57;;;1.23;;
66979;SDS011;54048;51.468;-2.572;2022-08-19T01:10:03;3.72;;;0.80;;
66979;SDS011;54048;51.468;-2.572;2022-08-19T01:12:31;5.32;;;1.17;;
66979;SDS011;54048;51.468;-2.572;2022-08-19T01:14:56;3.40;;;0.70;;
66979;SDS011;54048;51.468;-2.572;2022-08-19T01:17:22;1.42;;;0.70;;
66979;SDS011;54048;51.468;-2.572;2022-08-19T01:19:47;2.33;;;0.70;;
66979;SDS011;54048;51.468;-2.572;2022-08-19T01:24:51;1.65;;;1.10;;
66979;SDS011;54048;51.468;-2.572;2022-08-19T01:27:17;1.48;;;0.70;;
66979;SDS011;54048;51.468;-2.572;2022-08-19T01:29:43;4.80;;;1.02;;
66979;SDS011;54048;51.468;-2.572;2022-08-19T01:32:11;2.67;;;0.95;;
66979;SDS011;54048;51.468;-2.572;2022-08-19T01:34:37;4.97;;;1.02;;
66979;SDS011;54048;51.468;-2.572;2022-08-19T01:37:08;4.43;;;1.00;;
66979;SDS011;54048;51.468;-2.572;2022-08-19T01:39:37;3.15;;;1.00;;
66979;SDS011;54048;51.468;-2.572;2022-08-19T01:42:04;3.20;;;1.02;;
66979;SDS011;54048;51.468;-2.572;2022-08-19T01:44:31;3.95;;;1.35;;
66979;SDS011;54048;51.468;-2.572;2022-08-19T01:46:56;3.33;;;1.20;;
66979;SDS011;54048;51.468;-2.572;2022-08-19T01:49:23;1.55;;;0.90;;
66979;SDS011;54048;51.468;-2.572;2022-08-19T01:51:50;3.95;;;1.08;;
66979;SDS011;54048;51.468;-2.572;2022-08-19T01:54:16;2.65;;;1.13;;
66979;SDS011;54048;51.468;-2.572;2022-08-19T01:56:42;4.35;;;1.20;;
66979;SDS011;54048;51.468;-2.572;2022-08-19T01:59:14;7.25;;;1.13;;
66979;SDS011;54048;51.468;-2.572;2022-08-19T02:01:42;3.00;;;1.27;;
66979;SDS011;54048;51.468;-2.572;2022-08-19T02:04:08;4.20;;;1.23;;
66979;SDS011;54048;51.468;-2.572;2022-08-19T02:06:33;4.38;;;1.38;;
66979;SDS011;54048;51.468;-2.572;2022-08-19T02:08:59;4.32;;;1.30;;
66979;SDS011;54048;51.468;-2.572;2022-08-19T02:11:26;7.88;;;1.90;;
66979;SDS011;54048;51.468;-2.572;2022-08-19T02:13:54;6.00;;;1.60;;
66979;SDS011;54048;51.468;-2.572;2022-08-19T02:16:20;5.07;;;1.85;;
66979;SDS011;54048;51.468;-2.572;2022-08-19T02:18:46;6.18;;;1.67;;
66979;SDS011;54048;51.468;-2.572;2022-08-19T02:21:14;5.20;;;1.60;;
66979;SDS011;54048;51.468;-2.572;2022-08-19T02:23:41;7.10;;;1.98;;
66979;SDS011;54048;51.468;-2.572;2022-08-19T02:26:06;3.88;;;1.77;;
66979;SDS011;54048;51.468;-2.572;2022-08-19T02:28:32;5.22;;;1.70;;
66979;SDS011;54048;51.468;-2.572;2022-08-19T02:30:58;5.60;;;1.75;;
66979;SDS011;54048;51.468;-2.572;2022-08-19T02:33:25;9.52;;;1.80;;
66979;SDS011;54048;51.468;-2.572;2022-08-19T02:35:51;5.45;;;1.70;;
66979;SDS011;54048;51.468;-2.572;2022-08-19T02:38:16;5.50;;;1.65;;
66979;SDS011;54048;51.468;-2.572;2022-08-19T02:40:52;5.38;;;1.80;;
66979;SDS011;54048;51.468;-2.572;2022-08-19T02:43:19;8.52;;;1.70;;
66979;SDS011;54048;51.468;-2.572;2022-08-19T02:45:45;8.15;;;1.85;;
66979;SDS011;54048;51.468;-2.572;2022-08-19T02:48:12;4.38;;;1.70;;
66979;SDS011;54048;51.468;-2.572;2022-08-19T02:50:39;6.88;;;1.70;;
66979;SDS011;54048;51.468;-2.572;2022-08-19T02:53:05;6.10;;;1.98;;
66979;SDS011;54048;51.468;-2.572;2022-08-19T02:55:32;7.03;;;1.80;;
66979;SDS011;54048;51.468;-2.572;2022-08-19T02:57:57;5.57;;;1.63;;
66979;SDS011;54048;51.468;-2.572;2022-08-19T03:00:23;6.80;;;1.67;;
66979;SDS011;54048;51.468;-2.572;2022-08-19T03:02:49;7.43;;;1.85;;
66979;SDS011;54048;51.468;-2.572;2022-08-19T03:05:14;6.95;;;1.70;;
66979;SDS011;54048;51.468;-2.572;2022-08-19T03:07:40;12.00;;;2.10;;
66979;SDS011;54048;51.468;-2.572;2022-08-19T03:10:06;8.25;;;1.67;;
66979;SDS011;54048;51.468;-2.572;2022-08-19T03:12:34;10.93;;;2.05;;
66979;SDS011;54048;51.468;-2.572;2022-08-19T03:15:00;12.45;;;1.70;;
66979;SDS011;54048;51.468;-2.572;2022-08-19T03:17:26;7.10;;;1.67;;
66979;SDS011;54048;51.468;-2.572;2022-08-19T03:19:51;9.23;;;1.83;;
66979;SDS011;54048;51.468;-2.572;2022-08-19T03:22:16;10.85;;;2.13;;
66979;SDS011;54048;51.468;-2.572;2022-08-19T03:24:42;9.63;;;2.00;;
66979;SDS011;54048;51.468;-2.572;2022-08-19T03:27:08;10.75;;;2.28;;
66979;SDS011;54048;51.468;-2.572;2022-08-19T03:29:34;13.07;;;2.05;;
66979;SDS011;54048;51.468;-2.572;2022-08-19T03:32:03;8.55;;;2.30;;
66979;SDS011;54048;51.468;-2.572;2022-08-19T03:34:30;8.57;;;2.22;;
66979;SDS011;54048;51.468;-2.572;2022-08-19T03:36:58;8.60;;;2.13;;
66979;SDS011;54048;51.468;-2.572;2022-08-19T03:39:25;12.60;;;1.92;;
66979;SDS011;54048;51.468;-2.572;2022-08-19T03:41:51;7.72;;;2.20;;
66979;SDS011;54048;51.468;-2.572;2022-08-19T03:44:21;10.30;;;2.22;;
66979;SDS011;54048;51.468;-2.572;2022-08-19T03:46:48;7.38;;;2.40;;
66979;SDS011;54048;51.468;-2.572;2022-08-19T03:49:15;12.82;;;2.47;;
66979;SDS011;54048;51.468;-2.572;2022-08-19T03:51:41;9.57;;;2.00;;
66979;SDS011;54048;51.468;-2.572;2022-08-19T03:54:09;12.43;;;3.10;;
66979;SDS011;54048;51.468;-2.572;2022-08-19T03:56:38;15.38;;;2.60;;
66979;SDS011;54048;51.468;-2.572;2022-08-19T03:59:05;13.02;;;2.65;;
66979;SDS011;54048;51.468;-2.572;2022-08-19T04:01:31;14.40;;;2.88;;
66979;SDS011;54048;51.468;-2.572;2022-08-19T04:03:57;11.65;;;2.58;;
66979;SDS011;54048;51.468;-2.572;2022-08-19T04:06:27;9.38;;;2.35;;
66979;SDS011;54048;51.468;-2.572;2022-08-19T04:08:55;11.18;;;2.67;;
66979;SDS011;54048;51.468;-2.572;2022-08-19T04:11:26;11.98;;;2.85;;
66979;SDS011;54048;51.468;-2.572;2022-08-19T04:13:54;9.75;;;2.85;;
66979;SDS011;54048;51.468;-2.572;2022-08-19T04:16:21;14.45;;;3.22;;
66979;SDS011;54048;51.468;-2.572;2022-08-19T04:18:49;15.15;;;3.83;;
66979;SDS011;54048;51.468;-2.572;2022-08-19T04:21:16;13.38;;;2.92;;
66979;SDS011;54048;51.468;-2.572;2022-08-19T04:23:43;11.00;;;2.60;;
66979;SDS011;54048;51.468;-2.572;2022-08-19T04:26:16;15.88;;;3.00;;
66979;SDS011;54048;51.468;-2.572;2022-08-19T04:28:43;15.82;;;3.78;;
66979;SDS011;54048;51.468;-2.572;2022-08-19T04:31:16;13.82;;;3.30;;
66979;SDS011;54048;51.468;-2.572;2022-08-19T04:33:46;12.45;;;3.08;;
66979;SDS011;54048;51.468;-2.572;2022-08-19T04:36:16;14.40;;;3.25;;
66979;SDS011;54048;51.468;-2.572;2022-08-19T04:38:44;11.75;;;3.80;;
66979;SDS011;54048;51.468;-2.572;2022-08-19T04:41:09;12.48;;;3.05;;
66979;SDS011;54048;51.468;-2.572;2022-08-19T04:43:53;18.25;;;3.10;;
66979;SDS011;54048;51.468;-2.572;2022-08-19T04:46:18;18.85;;;3.80;;
66979;SDS011;54048;51.468;-2.572;2022-08-19T04:48:45;16.13;;;3.28;;
66979;SDS011;54048;51.468;-2.572;2022-08-19T04:51:11;15.40;;;2.65;;
66979;SDS011;54048;51.468;-2.572;2022-08-19T04:53:38;9.95;;;2.60;;
66979;SDS011;54048;51.468;-2.572;2022-08-19T04:56:06;9.23;;;2.75;;
66979;SDS011;54048;51.468;-2.572;2022-08-19T04:58:35;14.73;;;3.70;;
66979;SDS011;54048;51.468;-2.572;2022-08-19T05:01:01;14.02;;;4.03;;
66979;SDS011;54048;51.468;-2.572;2022-08-19T05:03:27;17.33;;;3.58;;
66979;SDS011;54048;51.468;-2.572;2022-08-19T05:05:58;14.57;;;3.25;;
66979;SDS011;54048;51.468;-2.572;2022-08-19T05:08:24;14.88;;;3.85;;
66979;SDS011;54048;51.468;-2.572;2022-08-19T05:10:50;15.80;;;3.70;;
66979;SDS011;54048;51.468;-2.572;2022-08-19T05:13:17;15.80;;;3.78;;
66979;SDS011;54048;51.468;-2.572;2022-08-19T05:15:44;24.30;;;4.40;;
66979;SDS011;54048;51.468;-2.572;2022-08-19T05:18:09;16.52;;;3.53;;
66979;SDS011;54048;51.468;-2.572;2022-08-19T05:20:53;23.42;;;5.00;;
66979;SDS011;54048;51.468;-2.572;2022-08-19T05:23:37;18.10;;;4.30;;
66979;SDS011;54048;51.468;-2.572;2022-08-19T05:26:03;18.02;;;4.18;;
66979;SDS011;54048;51.468;-2.572;2022-08-19T05:28:29;16.75;;;4.82;;
66979;SDS011;54048;51.468;-2.572;2022-08-19T05:30:54;12.40;;;3.92;;
66979;SDS011;54048;51.468;-2.572;2022-08-19T05:33:20;12.32;;;4.47;;
66979;SDS011;54048;51.468;-2.572;2022-08-19T05:35:47;18.98;;;4.80;;
66979;SDS011;54048;51.468;-2.572;2022-08-19T05:38:14;18.80;;;4.43;;
66979;SDS011;54048;51.468;-2.572;2022-08-19T05:40:40;14.02;;;3.60;;
66979;SDS011;54048;51.468;-2.572;2022-08-19T05:43:06;15.20;;;4.82;;
66979;SDS011;54048;51.468;-2.572;2022-08-19T05:45:32;16.20;;;3.85;;
66979;SDS011;54048;51.468;-2.572;2022-08-19T05:48:03;12.57;;;4.22;;
66979;SDS011;54048;51.468;-2.572;2022-08-19T05:50:28;13.07;;;3.58;;
66979;SDS011;54048;51.468;-2.572;2022-08-19T05:52:54;15.20;;;3.72;;
66979;SDS011;54048;51.468;-2.572;2022-08-19T05:55:20;13.90;;;3.40;;
66979;SDS011;54048;51.468;-2.572;2022-08-19T05:57:47;15.23;;;3.60;;
66979;SDS011;54048;51.468;-2.572;2022-08-19T06:00:13;14.32;;;4.18;;
66979;SDS011;54048;51.468;-2.572;2022-08-19T06:02:38;13.43;;;3.70;;
66979;SDS011;54048;51.468;-2.572;2022-08-19T06:05:05;13.65;;;3.75;;
66979;SDS011;54048;51.468;-2.572;2022-08-19T06:07:33;17.45;;;4.28;;
66979;SDS011;54048;51.468;-2.572;2022-08-19T06:09:59;14.30;;;3.13;;
66979;SDS011;54048;51.468;-2.572;2022-08-19T06:12:24;12.45;;;2.80;;
66979;SDS011;54048;51.468;-2.572;2022-08-19T06:14:53;14.82;;;3.17;;
66979;SDS011;54048;51.468;-2.572;2022-08-19T06:17:19;19.73;;;4.18;;
66979;SDS011;54048;51.468;-2.572;2022-08-19T06:19:46;12.13;;;2.67;;
66979;SDS011;54048;51.468;-2.572;2022-08-19T06:22:11;13.45;;;2.95;;
66979;SDS011;54048;51.468;-2.572;2022-08-19T06:24:38;12.70;;;3.50;;
66979;SDS011;54048;51.468;-2.572;2022-08-19T06:27:03;9.43;;;3.10;;
66979;SDS011;54048;51.468;-2.572;2022-08-19T06:29:30;8.82;;;2.50;;
66979;SDS011;54048;51.468;-2.572;2022-08-19T06:31:57;9.93;;;2.83;;
66979;SDS011;54048;51.468;-2.572;2022-08-19T06:34:23;8.88;;;2.70;;
66979;SDS011;54048;51.468;-2.572;2022-08-19T06:36:50;20.50;;;3.10;;
66979;SDS011;54048;51.468;-2.572;2022-08-19T06:39:17;11.07;;;3.08;;
66979;SDS011;54048;51.468;-2.572;2022-08-19T06:41:46;13.32;;;2.88;;
66979;SDS011;54048;51.468;-2.572;2022-08-19T06:44:13;9.68;;;2.25;;
66979;SDS011;54048;51.468;-2.572;2022-08-19T06:46:39;13.85;;;2.70;;
66979;SDS011;54048;51.468;-2.572;2022-08-19T06:49:05;12.02;;;2.55;;
66979;SDS011;54048;51.468;-2.572;2022-08-19T06:51:35;12.82;;;2.55;;
66979;SDS011;54048;51.468;-2.572;2022-08-19T06:54:01;11.80;;;2.35;;
66979;SDS011;54048;51.468;-2.572;2022-08-19T06:56:28;14.98;;;2.88;;
66979;SDS011;54048;51.468;-2.572;2022-08-19T06:58:57;6.13;;;1.67;;
66979;SDS011;54048;51.468;-2.572;2022-08-19T07:01:22;9.25;;;2.17;;
66979;SDS011;54048;51.468;-2.572;2022-08-19T07:03:48;11.70;;;2.35;;
66979;SDS011;54048;51.468;-2.572;2022-08-19T07:06:14;11.32;;;2.72;;
66979;SDS011;54048;51.468;-2.572;2022-08-19T07:08:42;15.25;;;2.20;;
66979;SDS011;54048;51.468;-2.572;2022-08-19T07:11:10;16.13;;;2.40;;
66979;SDS011;54048;51.468;-2.572;2022-08-19T07:13:38;8.05;;;1.92;;
66979;SDS011;54048;51.468;-2.572;2022-08-19T07:16:07;10.60;;;2.10;;
66979;SDS011;54048;51.468;-2.572;2022-08-19T07:18:34;9.27;;;1.88;;
66979;SDS011;54048;51.468;-2.572;2022-08-19T07:21:07;10.93;;;2.00;;
66979;SDS011;54048;51.468;-2.572;2022-08-19T07:23:41;10.82;;;2.00;;
66979;SDS011;54048;51.468;-2.572;2022-08-19T07:26:08;6.35;;;1.75;;
66979;SDS011;54048;51.468;-2.572;2022-08-19T07:28:39;9.25;;;2.15;;
66979;SDS011;54048;51.468;-2.572;2022-08-19T07:31:07;10.30;;;1.90;;
66979;SDS011;54048;51.468;-2.572;2022-08-19T07:33:33;9.90;;;1.88;;
66979;SDS011;54048;51.468;-2.572;2022-08-19T07:36:02;13.40;;;2.33;;
66979;SDS011;54048;51.468;-2.572;2022-08-19T07:38:29;6.57;;;2.00;;
66979;SDS011;54048;51.468;-2.572;2022-08-19T07:40:54;13.50;;;2.08;;
66979;SDS011;54048;51.468;-2.572;2022-08-19T07:43:19;11.10;;;2.20;;
66979;SDS011;54048;51.468;-2.572;2022-08-19T07:45:50;9.70;;;1.77;;
66979;SDS011;54048;51.468;-2.572;2022-08-19T07:48:17;9.73;;;1.98;;
66979;SDS011;54048;51.468;-2.572;2022-08-19T07:50:43;9.05;;;2.20;;
66979;SDS011;54048;51.468;-2.572;2022-08-19T07:53:09;11.02;;;2.28;;
66979;SDS011;54048;51.468;-2.572;2022-08-19T07:55:35;10.45;;;2.35;;
66979;SDS011;54048;51.468;-2.572;2022-08-19T07:58:00;9.98;;;1.85;;
66979;SDS011;54048;51.468;-2.572;2022-08-19T08:00:25;13.20;;;2.17;;
66979;SDS011;54048;51.468;-2.572;2022-08-19T08:02:54;5.97;;;2.00;;
66979;SDS011;54048;51.468;-2.572;2022-08-19T08:05:19;7.82;;;1.80;;
66979;SDS011;54048;51.468;-2.572;2022-08-19T08:08:03;9.27;;;2.28;;
66979;SDS011;54048;51.468;-2.572;2022-08-19T08:10:46;9.80;;;2.17;;
66979;SDS011;54048;51.468;-2.572;2022-08-19T08:13:12;11.30;;;2.33;;
66979;SDS011;54048;51.468;-2.572;2022-08-19T08:15:38;7.32;;;2.40;;
66979;SDS011;54048;51.468;-2.572;2022-08-19T08:18:03;11.98;;;2.22;;
66979;SDS011;54048;51.468;-2.572;2022-08-19T08:20:29;9.25;;;2.00;;
66979;SDS011;54048;51.468;-2.572;2022-08-19T08:22:54;8.50;;;1.70;;
66979;SDS011;54048;51.468;-2.572;2022-08-19T08:25:38;8.38;;;1.80;;
66979;SDS011;54048;51.468;-2.572;2022-08-19T08:28:04;10.90;;;2.20;;
66979;SDS011;54048;51.468;-2.572;2022-08-19T08:30:30;8.50;;;1.83;;
66979;SDS011;54048;51.468;-2.572;2022-08-19T08:32:57;10.57;;;2.35;;
66979;SDS011;54048;51.468;-2.572;2022-08-19T08:35:24;8.48;;;2.10;;
66979;SDS011;54048;51.468;-2.572;2022-08-19T08:37:50;14.18;;;2.38;;
66979;SDS011;54048;51.468;-2.572;2022-08-19T08:40:19;14.07;;;2.20;;
66979;SDS011;54048;51.468;-2.572;2022-08-19T08:43:04;15.07;;;2.42;;
66979;SDS011;54048;51.468;-2.572;2022-08-19T08:45:30;6.50;;;1.98;;
66979;SDS011;54048;51.468;-2.572;2022-08-19T08:47:59;8.02;;;2.05;;
66979;SDS011;54048;51.468;-2.572;2022-08-19T08:50:35;12.00;;;1.88;;
66979;SDS011;54048;51.468;-2.572;2022-08-19T08:53:05;8.95;;;1.70;;
66979;SDS011;54048;51.468;-2.572;2022-08-19T08:55:31;7.03;;;1.80;;
66979;SDS011;54048;51.468;-2.572;2022-08-19T09:00:30;6.05;;;1.70;;
66979;SDS011;54048;51.468;-2.572;2022-08-19T09:02:58;8.98;;;2.28;;
66979;SDS011;54048;51.468;-2.572;2022-08-19T09:05:30;7.65;;;1.50;;
66979;SDS011;54048;51.468;-2.572;2022-08-19T09:08:16;8.55;;;2.03;;
66979;SDS011;54048;51.468;-2.572;2022-08-19T09:11:10;10.60;;;2.08;;
66979;SDS011;54048;51.468;-2.572;2022-08-19T09:13:52;9.67;;;2.00;;
66979;SDS011;54048;51.468;-2.572;2022-08-19T09:16:48;10.13;;;2.00;;
66979;SDS011;54048;51.468;-2.572;2022-08-19T09:19:14;8.18;;;2.05;;
66979;SDS011;54048;51.468;-2.572;2022-08-19T09:21:40;8.18;;;1.80;;
66979;SDS011;54048;51.468;-2.572;2022-08-19T09:24:06;9.45;;;1.80;;
66979;SDS011;54048;51.468;-2.572;2022-08-19T09:26:32;7.05;;;1.60;;
66979;SDS011;54048;51.468;-2.572;2022-08-19T09:28:58;9.45;;;2.03;;
66979;SDS011;54048;51.468;-2.572;2022-08-19T09:31:25;10.93;;;1.75;;
66979;SDS011;54048;51.468;-2.572;2022-08-19T09:33:52;7.22;;;1.88;;
66979;SDS011;54048;51.468;-2.572;2022-08-19T09:36:22;11.38;;;1.77;;
66979;SDS011;54048;51.468;-2.572;2022-08-19T09:38:49;9.65;;;2.25;;
66979;SDS011;54048;51.468;-2.572;2022-08-19T09:41:16;8.55;;;1.98;;
66979;SDS011;54048;51.468;-2.572;2022-08-19T09:43:44;6.05;;;1.50;;
66979;SDS011;54048;51.468;-2.572;2022-08-19T09:46:11;10.20;;;2.05;;
66979;SDS011;54048;51.468;-2.572;2022-08-19T09:48:37;14.05;;;2.67;;
66979;SDS011;54048;51.468;-2.572;2022-08-19T09:51:05;7.82;;;1.92;;
66979;SDS011;54048;51.468;-2.572;2022-08-19T09:53:33;9.33;;;1.97;;
66979;SDS011;54048;51.468;-2.572;2022-08-19T09:55:59;10.32;;;2.78;;
66979;SDS011;54048;51.468;-2.572;2022-08-19T09:58:25;8.25;;;2.00;;
66979;SDS011;54048;51.468;-2.572;2022-08-19T10:00:53;11.80;;;2.75;;
66979;SDS011;54048;51.468;-2.572;2022-08-19T10:03:19;10.20;;;1.95;;
66979;SDS011;54048;51.468;-2.572;2022-08-19T10:05:45;9.80;;;2.67;;
66979;SDS011;54048;51.468;-2.572;2022-08-19T10:08:13;9.25;;;2.35;;
66979;SDS011;54048;51.468;-2.572;2022-08-19T10:10:40;11.38;;;3.00;;
66979;SDS011;54048;51.468;-2.572;2022-08-19T10:13:08;9.38;;;2.25;;
66979;SDS011;54048;51.468;-2.572;2022-08-19T10:15:34;10.20;;;2.67;;
66979;SDS011;54048;51.468;-2.572;2022-08-19T10:17:59;12.15;;;2.17;;
66979;SDS011;54048;51.468;-2.572;2022-08-19T10:20:25;13.48;;;2.60;;
66979;SDS011;54048;51.468;-2.572;2022-08-19T10:22:50;7.45;;;1.70;;
66979;SDS011;54048;51.468;-2.572;2022-08-19T10:25:16;12.43;;;2.03;;
66979;SDS011;54048;51.468;-2.572;2022-08-19T10:27:42;12.40;;;2.25;;
66979;SDS011;54048;51.468;-2.572;2022-08-19T10:30:07;9.35;;;2.35;;
66979;SDS011;54048;51.468;-2.572;2022-08-19T10:32:34;13.35;;;2.65;;
66979;SDS011;54048;51.468;-2.572;2022-08-19T10:34:59;12.45;;;2.08;;
66979;SDS011;54048;51.468;-2.572;2022-08-19T10:37:25;8.60;;;1.88;;
66979;SDS011;54048;51.468;-2.572;2022-08-19T10:39:51;8.00;;;2.08;;
66979;SDS011;54048;51.468;-2.572;2022-08-19T10:42:16;13.68;;;2.45;;
66979;SDS011;54048;51.468;-2.572;2022-08-19T10:44:43;9.13;;;2.20;;
66979;SDS011;54048;51.468;-2.572;2022-08-19T10:47:09;7.60;;;1.85;;
66979;SDS011;54048;51.468;-2.572;2022-08-19T10:49:35;12.57;;;2.53;;
66979;SDS011;54048;51.468;-2.572;2022-08-19T10:52:20;7.90;;;2.30;;
66979;SDS011;54048;51.468;-2.572;2022-08-19T10:54:58;9.43;;;2.20;;
66979;SDS011;54048;51.468;-2.572;2022-08-19T10:57:43;12.43;;;2.80;;
66979;SDS011;54048;51.468;-2.572;2022-08-19T11:00:09;9.90;;;2.20;;
66979;SDS011;54048;51.468;-2.572;2022-08-19T11:02:34;9.57;;;2.10;;
66979;SDS011;54048;51.468;-2.572;2022-08-19T11:05:00;12.07;;;2.67;;
66979;SDS011;54048;51.468;-2.572;2022-08-19T11:07:25;8.15;;;2.30;;
66979;SDS011;54048;51.468;-2.572;2022-08-19T11:09:51;7.45;;;2.17;;
66979;SDS011;54048;51.468;-2.572;2022-08-19T11:12:17;6.80;;;2.13;;
66979;SDS011;54048;51.468;-2.572;2022-08-19T11:14:42;12.30;;;2.58;;
66979;SDS011;54048;51.468;-2.572;2022-08-19T11:17:07;6.93;;;2.15;;
66979;SDS011;54048;51.468;-2.572;2022-08-19T11:19:33;11.40;;;2.28;;
66979;SDS011;54048;51.468;-2.572;2022-08-19T11:21:59;9.60;;;2.70;;
66979;SDS011;54048;51.468;-2.572;2022-08-19T11:24:26;10.95;;;2.53;;
66979;SDS011;54048;51.468;-2.572;2022-08-19T11:26:53;10.85;;;2.20;;
66979;SDS011;54048;51.468;-2.572;2022-08-19T11:29:23;11.88;;;2.58;;
66979;SDS011;54048;51.468;-2.572;2022-08-19T11:31:50;9.70;;;2.20;;
66979;SDS011;54048;51.468;-2.572;2022-08-19T11:34:21;12.02;;;2.40;;
66979;SDS011;54048;51.468;-2.572;2022-08-19T11:36:48;10.68;;;3.17;;
66979;SDS011;54048;51.468;-2.572;2022-08-19T11:39:15;8.98;;;1.70;;
66979;SDS011;54048;51.468;-2.572;2022-08-19T11:41:42;11.25;;;3.17;;
66979;SDS011;54048;51.468;-2.572;2022-08-19T11:44:08;8.68;;;2.50;;
66979;SDS011;54048;51.468;-2.572;2022-08-19T11:46:34;9.30;;;2.50;;
66979;SDS011;54048;51.468;-2.572;2022-08-19T11:49:01;10.60;;;2.67;;
66979;SDS011;54048;51.468;-2.572;2022-08-19T11:51:27;12.90;;;2.80;;
66979;SDS011;54048;51.468;-2.572;2022-08-19T11:53:54;8.80;;;2.47;;
66979;SDS011;54048;51.468;-2.572;2022-08-19T11:56:20;11.48;;;2.47;;
66979;SDS011;54048;51.468;-2.572;2022-08-19T11:58:46;11.02;;;2.25;;
66979;SDS011;54048;51.468;-2.572;2022-08-19T12:01:13;9.73;;;2.72;;
66979;SDS011;54048;51.468;-2.572;2022-08-19T12:03:40;9.13;;;2.47;;
66979;SDS011;54048;51.468;-2.572;2022-08-19T12:06:07;9.48;;;2.17;;
66979;SDS011;54048;51.468;-2.572;2022-08-19T12:08:33;10.07;;;2.17;;
66979;SDS011;54048;51.468;-2.572;2022-08-19T12:10:59;9.23;;;2.55;;
66979;SDS011;54048;51.468;-2.572;2022-08-19T12:13:28;10.32;;;2.25;;
66979;SDS011;54048;51.468;-2.572;2022-08-19T12:15:55;10.63;;;2.55;;
66979;SDS011;54048;51.468;-2.572;2022-08-19T12:18:20;8.45;;;2.30;;
66979;SDS011;54048;51.468;-2.572;2022-08-19T12:20:46;7.78;;;2.20;;
66979;SDS011;54048;51.468;-2.572;2022-08-19T12:23:12;8.15;;;2.10;;
66979;SDS011;54048;51.468;-2.572;2022-08-19T12:25:43;8.98;;;2.22;;
66979;SDS011;54048;51.468;-2.572;2022-08-19T12:28:17;11.77;;;2.60;;
66979;SDS011;54048;51.468;-2.572;2022-08-19T12:30:44;7.50;;;1.73;;
66979;SDS011;54048;51.468;-2.572;2022-08-19T12:33:09;6.72;;;1.95;;
66979;SDS011;54048;51.468;-2.572;2022-08-19T12:35:35;8.32;;;2.10;;
66979;SDS011;54048;51.468;-2.572;2022-08-19T12:38:01;10.30;;;2.22;;
66979;SDS011;54048;51.468;-2.572;2022-08-19T12:40:29;9.88;;;2.45;;
66979;SDS011;54048;51.468;-2.572;2022-08-19T12:42:54;7.93;;;2.08;;
66979;SDS011;54048;51.468;-2.572;2022-08-19T12:45:20;7.63;;;1.90;;
66979;SDS011;54048;51.468;-2.572;2022-08-19T12:47:45;7.85;;;2.42;;
66979;SDS011;54048;51.468;-2.572;2022-08-19T12:50:11;9.10;;;2.58;;
66979;SDS011;54048;51.468;-2.572;2022-08-19T12:52:37;10.52;;;2.33;;
66979;SDS011;54048;51.468;-2.572;2022-08-19T12:55:04;7.68;;;2.25;;
66979;SDS011;54048;51.468;-2.572;2022-08-19T12:57:30;6.85;;;2.00;;
66979;SDS011;54048;51.468;-2.572;2022-08-19T12:59:58;8.93;;;2.08;;
66979;SDS011;54048;51.468;-2.572;2022-08-19T13:02:28;10.40;;;2.20;;
66979;SDS011;54048;51.468;-2.572;2022-08-19T13:04:53;9.20;;;2.35;;
66979;SDS011;54048;51.468;-2.572;2022-08-19T13:07:19;9.50;;;2.60;;
66979;SDS011;54048;51.468;-2.572;2022-08-19T13:09:44;8.50;;;2.10;;
66979;SDS011;54048;51.468;-2.572;2022-08-19T13:12:10;10.15;;;2.35;;
66979;SDS011;54048;51.468;-2.572;2022-08-19T13:14:38;12.18;;;2.65;;
66979;SDS011;54048;51.468;-2.572;2022-08-19T13:17:05;11.05;;;2.40;;
66979;SDS011;54048;51.468;-2.572;2022-08-19T13:19:31;7.15;;;2.20;;
66979;SDS011;54048;51.468;-2.572;2022-08-19T13:21:56;8.75;;;2.25;;
66979;SDS011;54048;51.468;-2.572;2022-08-19T13:24:22;10.13;;;2.55;;
66979;SDS011;54048;51.468;-2.572;2022-08-19T13:26:48;9.13;;;2.15;;
66979;SDS011;54048;51.468;-2.572;2022-08-19T13:29:13;6.93;;;1.88;;
66979;SDS011;54048;51.468;-2.572;2022-08-19T13:31:57;10.52;;;2.33;;
66979;SDS011;54048;51.468;-2.572;2022-08-19T13:34:41;8.13;;;2.60;;
66979;SDS011;54048;51.468;-2.572;2022-08-19T13:37:07;7.15;;;2.25;;
66979;SDS011;54048;51.468;-2.572;2022-08-19T13:39:32;7.22;;;2.05;;
66979;SDS011;54048;51.468;-2.572;2022-08-19T13:41:59;10.18;;;2.00;;
66979;SDS011;54048;51.468;-2.572;2022-08-19T13:44:26;9.80;;;2.28;;
66979;SDS011;54048;51.468;-2.572;2022-08-19T13:46:54;9.73;;;2.00;;
66979;SDS011;54048;51.468;-2.572;2022-08-19T13:49:20;10.13;;;1.95;;
66979;SDS011;54048;51.468;-2.572;2022-08-19T13:51:46;6.13;;;1.90;;
66979;SDS011;54048;51.468;-2.572;2022-08-19T13:54:12;9.07;;;2.10;;
66979;SDS011;54048;51.468;-2.572;2022-08-19T13:56:42;6.95;;;1.60;;
66979;SDS011;54048;51.468;-2.572;2022-08-19T13:59:08;8.82;;;1.70;;
66979;SDS011;54048;51.468;-2.572;2022-08-19T14:01:34;7.13;;;1.50;;
66979;SDS011;54048;51.468;-2.572;2022-08-19T14:04:00;4.75;;;1.40;;
66979;SDS011;54048;51.468;-2.572;2022-08-19T14:06:26;7.22;;;1.95;;
66979;SDS011;54048;51.468;-2.572;2022-08-19T14:08:51;8.32;;;1.70;;
66979;SDS011;54048;51.468;-2.572;2022-08-19T14:11:17;5.20;;;1.38;;
66979;SDS011;54048;51.468;-2.572;2022-08-19T14:13:43;4.30;;;1.50;;
66979;SDS011;54048;51.468;-2.572;2022-08-19T14:16:09;7.80;;;1.63;;
66979;SDS011;54048;51.468;-2.572;2022-08-19T14:18:35;4.72;;;1.50;;
66979;SDS011;54048;51.468;-2.572;2022-08-19T14:21:00;6.38;;;1.60;;
66979;SDS011;54048;51.468;-2.572;2022-08-19T14:23:27;4.85;;;1.50;;
66979;SDS011;54048;51.468;-2.572;2022-08-19T14:25:53;4.90;;;1.70;;
66979;SDS011;54048;51.468;-2.572;2022-08-19T14:28:28;9.65;;;1.80;;
66979;SDS011;54048;51.468;-2.572;2022-08-19T14:30:55;4.07;;;1.55;;
66979;SDS011;54048;51.468;-2.572;2022-08-19T14:33:20;2.70;;;1.63;;
66979;SDS011;54048;51.468;-2.572;2022-08-19T14:35:45;4.72;;;1.48;;